Blue Yonder — WCW3625 — position and weather

sailwx.info

Track history (hours):
 
Tides and Currents Weather Stations Pressure Air Temp Water Temp Dewpoint Dewpoint Depression Visibility Wind Speed Wind Dir Waves Ship Positions

Blue Yonder

Owner: BRIDGES, DAVID M, VIRGINIA BEACH, VA. More information available from US FCC via Universal Licensing System and Coast Guard Vessel Documentation Center.

Last reported at 2014-Nov-17 14:33 UTC. Time now 2014-Dec-21 15:53 UTC.
Position N 26°08' W 080°07'.
Warning: this ship's position is 34 days out of date.

Length 12 m.

Type: Sailing vessel. MMSI: 367091720.

Date/timePositionNaut miles runAvg speedWind from/ knotsBaromVisibWave heightAir tempDewpointWater temp
2014-Nov-17 14:33N 26°08' W 080°07'1 1.3
2014-Nov-17 13:27N 26°06' W 080°07'0 0.1
2014-Nov-17 12:31N 26°06' W 080°07'0 0.0
2014-Nov-17 11:31N 26°06' W 080°07'0 0.0
2014-Nov-17 10:10N 26°06' W 080°07'0 0.0
2014-Nov-17 09:25N 26°06' W 080°07'0 0.0
2014-Nov-17 08:25N 26°06' W 080°07'0 0.0
2014-Nov-17 07:25N 26°06' W 080°07'0 0.0
2014-Nov-17 06:28N 26°06' W 080°07'0 0.0
2014-Nov-17 05:28N 26°06' W 080°07'0 0.0
2014-Nov-17 04:28N 26°06' W 080°07'0 0.0
2014-Nov-17 03:31N 26°06' W 080°07'0 0.0
2014-Nov-17 02:31N 26°06' W 080°07'0 0.0
2014-Nov-17 01:31N 26°06' W 080°07'0 0.0
2014-Nov-17 00:31N 26°06' W 080°07'0 0.0
2014-Nov-16 23:31N 26°06' W 080°07'0 0.0
2014-Nov-16 22:31N 26°06' W 080°07'0 0.0
2014-Nov-16 21:22N 26°06' W 080°07'0 0.0
2014-Nov-16 20:22N 26°06' W 080°07'0 0.0
2014-Nov-16 19:25N 26°06' W 080°07'0 0.0
2014-Nov-16 18:25N 26°06' W 080°07'0 0.0
2014-Nov-16 17:25N 26°06' W 080°07'0 0.0
2014-Nov-16 16:22N 26°06' W 080°07'0 0.0
2014-Nov-16 15:28N 26°06' W 080°07'0 0.0
2014-Nov-16 14:28N 26°06' W 080°07'0 0.0
2014-Nov-16 13:31N 26°06' W 080°07'0 0.0
2014-Nov-16 12:31N 26°06' W 080°07'0 0.0
2014-Nov-16 11:31N 26°06' W 080°07'0 0.0
2014-Nov-16 10:31N 26°06' W 080°07'0 0.0
2014-Nov-16 09:31N 26°06' W 080°07'0 0.0
2014-Nov-16 08:31N 26°06' W 080°07'0 0.0
2014-Nov-16 07:22N 26°06' W 080°07'0 0.0
2014-Nov-16 06:19N 26°06' W 080°07'0 0.0
2014-Nov-16 05:25N 26°06' W 080°07'0 0.0
2014-Nov-16 04:25N 26°06' W 080°07'0 0.0
2014-Nov-16 03:25N 26°06' W 080°07'0 0.0
2014-Nov-16 02:28N 26°06' W 080°07'0 0.0
2014-Nov-16 01:28N 26°06' W 080°07'0 0.0
2014-Nov-16 00:25N 26°06' W 080°07'0 0.0
2014-Nov-15 23:28N 26°06' W 080°07'0 0.0
2014-Nov-15 22:31N 26°06' W 080°07'0 0.0
2014-Nov-15 21:28N 26°06' W 080°07'0 0.0
2014-Nov-15 20:31N 26°06' W 080°07'0 0.0
2014-Nov-15 19:31N 26°06' W 080°07'0 0.0
2014-Nov-15 18:31N 26°06' W 080°07'0 0.0
2014-Nov-15 17:22N 26°06' W 080°07'0 0.0
2014-Nov-15 16:22N 26°06' W 080°07'0 0.0
2014-Nov-15 15:25N 26°06' W 080°07'0 0.0
2014-Nov-15 14:25N 26°06' W 080°07'0 0.0
2014-Nov-15 13:10N 26°06' W 080°07'0 0.0
2014-Nov-15 12:28N 26°06' W 080°07'0 0.0
2014-Nov-15 11:28N 26°06' W 080°07'0 0.0
2014-Nov-15 10:28N 26°06' W 080°07'0 0.0
2014-Nov-15 09:31N 26°06' W 080°07'0 0.0
2014-Nov-15 08:31N 26°06' W 080°07'0 0.0
2014-Nov-15 07:31N 26°06' W 080°07'0 0.0
2014-Nov-15 06:31N 26°06' W 080°07'0 0.0
2014-Nov-15 05:19N 26°06' W 080°07'0 0.0
2014-Nov-15 04:31N 26°06' W 080°07'0 0.0
2014-Nov-15 03:31N 26°06' W 080°07'0 0.0
2014-Nov-15 02:22N 26°06' W 080°07'0 0.0
2014-Nov-15 01:25N 26°06' W 080°07'0 0.0
2014-Nov-15 00:25N 26°06' W 080°07'0 0.0
2014-Nov-14 23:25N 26°06' W 080°07'0 0.0
2014-Nov-14 22:28N 26°06' W 080°07'0 0.0
2014-Nov-14 21:28N 26°06' W 080°07'1 0.6
2014-Nov-14 20:33N 26°06' W 080°07'5 4.6
2014-Nov-14 19:33N 26°10' W 080°05'1 1.3
2014-Nov-14 18:32N 26°11' W 080°05'5 4.7
2014-Nov-14 17:29N 26°16' W 080°04'6 6.1
2014-Nov-14 16:28N 26°23' W 080°03'31 1.4
2014-Nov-13 18:25N 26°53' W 080°03'1 0.6
2014-Nov-13 17:32N 26°54' W 080°02'6 5.7
2014-Nov-13 16:33N 26°59' W 080°03'  
Track history (hours):
 
Tides and Currents Weather Stations Pressure Air Temp Water Temp Dewpoint Dewpoint Depression Visibility Wind Speed Wind Dir Waves Ship Positions

Blue Yonder

Owner: BRIDGES, DAVID M, VIRGINIA BEACH, VA. More information available from US FCC via Universal Licensing System and Coast Guard Vessel Documentation Center.

Last reported at 2014-Nov-17 14:33 UTC. Time now 2014-Dec-21 15:53 UTC.
Position N 26°08' W 080°07'.
Warning: this ship's position is 34 days out of date.

Length 12 m.

Type: Sailing vessel. MMSI: 367091720.

Date/timePositionNaut miles runAvg speedWind from/ knotsBaromVisibWave heightAir tempDewpointWater temp
2014-Nov-17 14:33N 26°08' W 080°07'1 1.3
2014-Nov-17 13:27N 26°06' W 080°07'0 0.1
2014-Nov-17 12:31N 26°06' W 080°07'0 0.0
2014-Nov-17 11:31N 26°06' W 080°07'0 0.0
2014-Nov-17 10:10N 26°06' W 080°07'0 0.0
2014-Nov-17 09:25N 26°06' W 080°07'0 0.0
2014-Nov-17 08:25N 26°06' W 080°07'0 0.0
2014-Nov-17 07:25N 26°06' W 080°07'0 0.0
2014-Nov-17 06:28N 26°06' W 080°07'0 0.0
2014-Nov-17 05:28N 26°06' W 080°07'0 0.0
2014-Nov-17 04:28N 26°06' W 080°07'0 0.0
2014-Nov-17 03:31N 26°06' W 080°07'0 0.0
2014-Nov-17 02:31N 26°06' W 080°07'0 0.0
2014-Nov-17 01:31N 26°06' W 080°07'0 0.0
2014-Nov-17 00:31N 26°06' W 080°07'0 0.0
2014-Nov-16 23:31N 26°06' W 080°07'0 0.0
2014-Nov-16 22:31N 26°06' W 080°07'0 0.0
2014-Nov-16 21:22N 26°06' W 080°07'0 0.0
2014-Nov-16 20:22N 26°06' W 080°07'0 0.0
2014-Nov-16 19:25N 26°06' W 080°07'0 0.0
2014-Nov-16 18:25N 26°06' W 080°07'0 0.0
2014-Nov-16 17:25N 26°06' W 080°07'0 0.0
2014-Nov-16 16:22N 26°06' W 080°07'0 0.0
2014-Nov-16 15:28N 26°06' W 080°07'0 0.0
2014-Nov-16 14:28N 26°06' W 080°07'0 0.0
2014-Nov-16 13:31N 26°06' W 080°07'0 0.0
2014-Nov-16 12:31N 26°06' W 080°07'0 0.0
2014-Nov-16 11:31N 26°06' W 080°07'0 0.0
2014-Nov-16 10:31N 26°06' W 080°07'0 0.0
2014-Nov-16 09:31N 26°06' W 080°07'0 0.0
2014-Nov-16 08:31N 26°06' W 080°07'0 0.0
2014-Nov-16 07:22N 26°06' W 080°07'0 0.0
2014-Nov-16 06:19N 26°06' W 080°07'0 0.0
2014-Nov-16 05:25N 26°06' W 080°07'0 0.0
2014-Nov-16 04:25N 26°06' W 080°07'0 0.0
2014-Nov-16 03:25N 26°06' W 080°07'0 0.0
2014-Nov-16 02:28N 26°06' W 080°07'0 0.0
2014-Nov-16 01:28N 26°06' W 080°07'0 0.0
2014-Nov-16 00:25N 26°06' W 080°07'0 0.0
2014-Nov-15 23:28N 26°06' W 080°07'0 0.0
2014-Nov-15 22:31N 26°06' W 080°07'0 0.0
2014-Nov-15 21:28N 26°06' W 080°07'0 0.0
2014-Nov-15 20:31N 26°06' W 080°07'0 0.0
2014-Nov-15 19:31N 26°06' W 080°07'0 0.0
2014-Nov-15 18:31N 26°06' W 080°07'0 0.0
2014-Nov-15 17:22N 26°06' W 080°07'0 0.0
2014-Nov-15 16:22N 26°06' W 080°07'0 0.0
2014-Nov-15 15:25N 26°06' W 080°07'0 0.0
2014-Nov-15 14:25N 26°06' W 080°07'0 0.0
2014-Nov-15 13:10N 26°06' W 080°07'0 0.0
2014-Nov-15 12:28N 26°06' W 080°07'0 0.0
2014-Nov-15 11:28N 26°06' W 080°07'0 0.0
2014-Nov-15 10:28N 26°06' W 080°07'0 0.0
2014-Nov-15 09:31N 26°06' W 080°07'0 0.0
2014-Nov-15 08:31N 26°06' W 080°07'0 0.0
2014-Nov-15 07:31N 26°06' W 080°07'0 0.0
2014-Nov-15 06:31N 26°06' W 080°07'0 0.0
2014-Nov-15 05:19N 26°06' W 080°07'0 0.0
2014-Nov-15 04:31N 26°06' W 080°07'0 0.0
2014-Nov-15 03:31N 26°06' W 080°07'0 0.0
2014-Nov-15 02:22N 26°06' W 080°07'0 0.0
2014-Nov-15 01:25N 26°06' W 080°07'0 0.0
2014-Nov-15 00:25N 26°06' W 080°07'0 0.0
2014-Nov-14 23:25N 26°06' W 080°07'0 0.0
2014-Nov-14 22:28N 26°06' W 080°07'0 0.0
2014-Nov-14 21:28N 26°06' W 080°07'1 0.6
2014-Nov-14 20:33N 26°06' W 080°07'5 4.6
2014-Nov-14 19:33N 26°10' W 080°05'1 1.3
2014-Nov-14 18:32N 26°11' W 080°05'5 4.7
2014-Nov-14 17:29N 26°16' W 080°04'6 6.1
2014-Nov-14 16:28N 26°23' W 080°03'31 1.4
2014-Nov-13 18:25N 26°53' W 080°03'1 0.6
2014-Nov-13 17:32N 26°54' W 080°02'6 5.7
2014-Nov-13 16:33N 26°59' W 080°03'  

Dump ship's entire track history